createdAt,value
2022-10-17T00:04:18.055Z,17.88
2022-10-17T00:10:08.146Z,17.88
2022-10-17T00:15:54.813Z,17.85
2022-10-17T00:21:41.524Z,17.87
2022-10-17T00:27:28.982Z,17.76
2022-10-17T00:33:17.963Z,17.73
2022-10-17T00:39:05.310Z,17.67
2022-10-17T00:45:12.785Z,17.60
2022-10-17T00:51:02.760Z,17.59
2022-10-17T00:56:50.495Z,17.62
2022-10-17T01:02:39.827Z,17.66
2022-10-17T01:08:28.651Z,17.52
2022-10-17T01:14:19.912Z,17.44
2022-10-17T01:20:34.695Z,17.47
2022-10-17T01:26:55.480Z,17.36
2022-10-17T01:33:06.543Z,17.27
2022-10-17T01:39:19.360Z,17.19
2022-10-17T01:45:20.260Z,17.23
2022-10-17T01:51:21.534Z,17.16
2022-10-17T01:57:18.560Z,17.21
2022-10-17T02:03:09.588Z,17.17
2022-10-17T02:08:58.991Z,17.12
2022-10-17T02:15:05.556Z,17.13
2022-10-17T02:21:11.511Z,17.17
2022-10-17T02:27:13.543Z,17.21
2022-10-17T02:33:06.965Z,17.16
2022-10-17T02:38:57.118Z,17.11
2022-10-17T02:44:46.002Z,17.06
2022-10-17T02:50:47.160Z,17.12
2022-10-17T02:56:39.755Z,17.14
2022-10-17T03:02:27.199Z,17.19
2022-10-17T03:08:14.242Z,17.23
2022-10-17T03:14:01.079Z,17.19
2022-10-17T03:19:48.595Z,17.11
2022-10-17T03:25:37.486Z,17.17
2022-10-17T03:31:25.202Z,17.16
2022-10-17T03:37:13.274Z,17.23
2022-10-17T03:43:01.551Z,17.11
2022-10-17T03:48:49.689Z,17.11
2022-10-17T03:54:36.953Z,17.13
2022-10-17T04:00:23.929Z,17.12
2022-10-17T04:06:16.076Z,17.10
2022-10-17T04:12:04.543Z,17.20
2022-10-17T04:17:52.608Z,17.21
2022-10-17T04:23:41.965Z,17.35
2022-10-17T04:29:41.281Z,17.25
2022-10-17T04:35:36.130Z,17.24
2022-10-17T04:41:25.995Z,17.25
2022-10-17T04:47:12.767Z,17.23
2022-10-17T04:52:59.839Z,17.19
2022-10-17T04:58:48.135Z,17.17
2022-10-17T05:04:35.328Z,17.18
2022-10-17T05:10:22.552Z,17.17
2022-10-17T05:16:11.541Z,17.27
2022-10-17T05:21:58.413Z,17.20
2022-10-17T05:27:45.220Z,17.32
2022-10-17T05:33:32.156Z,17.13
2022-10-17T05:39:19.712Z,17.11
2022-10-17T05:45:08.368Z,17.09
2022-10-17T05:51:00.639Z,17.08
2022-10-17T05:56:54.179Z,17.12
2022-10-17T06:02:47.594Z,17.03
2022-10-17T06:08:36.082Z,16.91
2022-10-17T06:14:23.765Z,16.84
2022-10-17T06:20:16.566Z,16.73
2022-10-17T06:26:05.909Z,16.77
2022-10-17T06:31:54.125Z,16.69
2022-10-17T06:37:41.668Z,16.58
2022-10-17T06:43:31.860Z,16.57
2022-10-17T06:49:49.669Z,16.42
2022-10-17T06:56:07.481Z,16.58
2022-10-17T07:02:13.390Z,16.58
2022-10-17T07:20:19.704Z,16.60
2022-10-17T07:41:31.433Z,16.56
2022-10-17T07:47:26.824Z,16.61
2022-10-17T07:53:17.081Z,16.70
2022-10-17T07:59:09.344Z,16.88
2022-10-17T08:04:57.992Z,16.94
2022-10-17T08:10:45.435Z,16.91
2022-10-17T08:16:34.870Z,16.89
2022-10-17T08:22:23.109Z,16.95
2022-10-17T08:28:10.162Z,17.09
2022-10-17T08:33:58.296Z,17.02
2022-10-17T08:39:48.669Z,17.25
2022-10-17T08:45:44.249Z,17.32
2022-10-17T08:51:36.103Z,17.43
2022-10-17T08:57:23.056Z,17.39
2022-10-17T09:03:19.168Z,17.48
2022-10-17T09:09:17.921Z,17.58
2022-10-17T09:15:52.931Z,17.88
2022-10-17T09:22:03.150Z,17.89
2022-10-17T09:28:10.140Z,18.01
2022-10-17T09:34:12.770Z,18.03
2022-10-17T09:40:46.191Z,17.99
2022-10-17T09:47:00.357Z,17.97
2022-10-17T09:52:57.230Z,18.41
2022-10-17T09:58:50.399Z,18.53
2022-10-17T10:04:47.088Z,18.53
2022-10-17T10:10:46.445Z,18.82
2022-10-17T10:16:41.617Z,18.70
2022-10-17T10:22:29.238Z,18.57
2022-10-17T10:28:18.939Z,18.79
2022-10-17T10:34:30.300Z,18.94
2022-10-17T10:40:24.463Z,18.92
2022-10-17T10:46:27.428Z,19.02
2022-10-17T10:52:24.527Z,19.30
2022-10-17T10:58:42.178Z,19.32
2022-10-17T11:05:11.184Z,19.56
2022-10-17T11:11:27.294Z,19.53
2022-10-17T11:18:04.347Z,19.34
2022-10-17T11:24:37.462Z,19.40
2022-10-17T11:37:24.443Z,19.70
2022-10-17T11:43:40.043Z,19.65
2022-10-17T11:49:52.289Z,19.74
2022-10-17T11:56:02.275Z,19.63
2022-10-17T12:02:09.363Z,19.30
2022-10-17T12:08:19.015Z,19.13
2022-10-17T12:15:01.872Z,19.36
2022-10-17T12:21:03.903Z,19.42
2022-10-17T12:27:05.138Z,19.49
2022-10-17T12:33:18.841Z,19.55
2022-10-17T12:39:11.863Z,19.53
2022-10-17T12:45:02.754Z,19.63
2022-10-17T12:51:34.935Z,19.58
2022-10-17T12:57:58.195Z,19.67
2022-10-17T13:03:50.417Z,19.78
2022-10-17T13:09:48.714Z,19.86
2022-10-17T13:15:49.579Z,19.86
2022-10-17T13:21:36.412Z,19.46
2022-10-17T13:27:32.028Z,19.50
2022-10-17T13:33:32.500Z,19.73
2022-10-17T13:39:38.472Z,19.57
2022-10-17T13:45:41.559Z,19.54
2022-10-17T13:51:31.341Z,19.77
2022-10-17T13:57:19.963Z,19.81
2022-10-17T14:03:07.635Z,19.60
2022-10-17T14:09:04.656Z,19.66
2022-10-17T14:15:11.142Z,19.69
2022-10-17T14:27:37.973Z,19.62
2022-10-17T14:33:29.582Z,19.65
2022-10-17T14:39:21.081Z,19.74
2022-10-17T14:45:21.368Z,19.59
2022-10-17T14:51:16.346Z,19.61
2022-10-17T14:57:14.853Z,19.76
2022-10-17T15:03:02.291Z,19.66
2022-10-17T15:08:49.273Z,19.53
2022-10-17T15:14:36.265Z,19.61
2022-10-17T15:20:28.124Z,19.39
2022-10-17T15:26:24.320Z,19.35
2022-10-17T15:32:13.530Z,19.38
2022-10-17T15:38:00.696Z,19.51
2022-10-17T15:43:48.908Z,19.60
2022-10-17T15:49:38.370Z,19.37
2022-10-17T15:55:27.901Z,19.08
2022-10-17T16:01:27.175Z,19.01
2022-10-17T16:07:15.179Z,18.80
2022-10-17T16:13:02.133Z,18.71
2022-10-17T16:18:49.376Z,18.52
2022-10-17T16:24:36.270Z,18.29
2022-10-17T16:30:29.699Z,18.15
2022-10-17T16:36:16.519Z,18.13
2022-10-17T16:42:03.361Z,18.11
2022-10-17T16:47:50.737Z,17.85
2022-10-17T16:53:44.512Z,17.66
2022-10-17T16:59:31.455Z,17.59
2022-10-17T17:05:18.415Z,17.41
2022-10-17T17:11:12.027Z,17.37
2022-10-17T17:16:58.902Z,17.41
2022-10-17T17:29:16.976Z,17.26
2022-10-17T17:35:04.359Z,17.14
2022-10-17T17:40:54.352Z,17.05
2022-10-17T17:46:43.758Z,16.90
2022-10-17T17:52:31.569Z,16.76
2022-10-17T17:58:21.192Z,16.71
2022-10-17T18:04:09.326Z,16.75
2022-10-17T18:09:57.028Z,16.52
2022-10-17T18:15:44.668Z,16.42
2022-10-17T18:21:31.731Z,16.38
2022-10-17T18:27:18.498Z,16.35
2022-10-17T18:33:05.668Z,16.20
2022-10-17T18:38:53.604Z,16.23
2022-10-17T18:44:40.357Z,16.15
2022-10-17T18:50:28.752Z,15.90
2022-10-17T18:56:38.360Z,15.97
2022-10-17T19:02:40.030Z,15.89
2022-10-17T19:08:27.880Z,15.86
2022-10-17T19:14:18.675Z,15.92
2022-10-17T19:20:12.107Z,15.84
2022-10-17T19:26:10.412Z,15.81
2022-10-17T19:31:59.581Z,15.80
2022-10-17T19:38:18.807Z,15.67
2022-10-17T19:44:40.888Z,15.59
2022-10-17T19:50:53.733Z,15.54
2022-10-17T19:56:55.212Z,15.44
2022-10-17T20:02:45.868Z,15.42
2022-10-17T20:08:33.507Z,15.30
2022-10-17T20:14:21.066Z,15.32
2022-10-17T20:20:08.941Z,15.29
2022-10-17T20:26:13.190Z,15.30
2022-10-17T20:32:15.963Z,15.29
2022-10-17T20:38:13.190Z,15.28
2022-10-17T20:44:01.003Z,15.20
2022-10-17T20:49:49.150Z,15.04
2022-10-17T20:55:37.223Z,14.98
2022-10-17T21:08:32.686Z,14.84
2022-10-17T21:14:33.411Z,14.71
2022-10-17T21:20:28.173Z,14.48
2022-10-17T21:26:18.474Z,14.53
2022-10-17T21:32:31.886Z,14.44
2022-10-17T21:38:28.667Z,14.19
2022-10-17T21:52:11.270Z,13.86
2022-10-17T21:58:08.062Z,13.86
2022-10-17T22:03:57.807Z,13.63
2022-10-17T22:09:44.644Z,13.61
2022-10-17T22:23:00.179Z,13.20
2022-10-17T22:28:46.994Z,13.00
2022-10-17T22:34:33.671Z,12.93
2022-10-17T22:40:23.300Z,12.92
2022-10-17T22:46:18.082Z,12.81
2022-10-17T22:52:04.958Z,12.67
2022-10-17T22:57:51.787Z,12.81
2022-10-17T23:03:38.637Z,12.65
2022-10-17T23:15:11.980Z,12.41
2022-10-17T23:21:01.217Z,12.36
2022-10-17T23:26:50.124Z,12.23
2022-10-17T23:32:36.963Z,12.25
2022-10-17T23:38:23.775Z,11.98
2022-10-17T23:44:11.420Z,11.86
2022-10-17T23:49:58.346Z,11.62
2022-10-17T23:55:45.074Z,11.93
